Time;durP1;ratioP1;P1;durP2;ratioP2;P2;SDS_P1;SDS_P2;PMS_P1;PMS_P2;Temp;Humidity;BMP_temperature;BMP_pressure;BME280_temperature;BME280_humidity;BME280_pressure;Samples;Min_cycle;Max_cycle;Signal;HPM_P1;HPM_P2
2021/04/02 00:01:38;;;;;;;29.08;21.15;;;;;;;9.39;76.08;99641.13;5118525;28;20036;-55
2021/04/02 00:04:04;;;;;;;30.30;22.45;;;;;;;9.37;76.13;99645.56;5119581;28;20128;-55
2021/04/02 00:06:30;;;;;;;28.08;21.13;;;;;;;9.27;76.12;99647.53;5119515;27;20343;-55
2021/04/02 00:08:55;;;;;;;26.42;21.23;;;;;;;9.21;75.76;99646.78;5119247;28;20449;-54
2021/04/02 00:11:21;;;;;;;26.27;21.08;;;;;;;9.18;75.70;99658.16;5101764;28;20036;-55
2021/04/02 00:13:47;;;;;;;25.90;19.80;;;;;;;9.17;75.34;99660.84;5119178;28;20051;-55
2021/04/02 00:16:14;;;;;;;28.60;20.52;;;;;;;9.03;76.40;99661.97;5119551;28;20062;-55
2021/04/02 00:18:40;;;;;;;29.45;22.17;;;;;;;8.84;77.05;99664.13;5118019;28;20502;-55
2021/04/02 00:21:07;;;;;;;27.02;22.02;;;;;;;9.00;76.67;99669.00;5119221;28;20055;-55
2021/04/02 00:23:34;;;;;;;27.83;21.15;;;;;;;8.85;76.23;99680.63;5118046;28;20097;-55
2021/04/02 00:25:59;;;;;;;26.60;23.08;;;;;;;8.75;76.42;99671.28;5118912;27;20053;-55
2021/04/02 00:28:26;;;;;;;30.50;22.58;;;;;;;8.58;76.73;99668.97;5118875;28;20044;-55
2021/04/02 00:30:55;;;;;;;31.48;23.77;;;;;;;8.61;76.53;99671.50;5119052;28;20319;-55
2021/04/02 00:33:22;;;;;;;28.75;24.17;;;;;;;8.49;77.02;99682.22;5084708;28;20047;-55
2021/04/02 00:35:47;;;;;;;27.42;23.02;;;;;;;8.49;77.20;99677.84;5118932;28;20051;-55
2021/04/02 00:38:13;;;;;;;28.08;22.02;;;;;;;8.46;76.95;99677.03;5119152;28;20035;-55
2021/04/02 00:40:43;;;;;;;24.63;20.85;;;;;;;8.44;76.78;99669.22;5118605;28;20043;-55
2021/04/02 00:43:09;;;;;;;27.15;22.45;;;;;;;8.31;77.46;99665.09;5118150;28;20443;-55
2021/04/02 00:45:36;;;;;;;26.63;21.27;;;;;;;8.37;77.35;99671.06;5118771;28;20101;-55
2021/04/02 00:48:02;;;;;;;26.85;20.90;;;;;;;8.36;77.41;99671.09;5117872;28;20388;-55
2021/04/02 00:50:56;;;;;;;26.55;21.63;;;;;;;8.43;76.49;99672.75;5118714;28;20054;-55
2021/04/02 00:53:26;;;;;;;25.33;22.60;;;;;;;8.20;77.50;99662.69;5117707;28;20040;-55
2021/04/02 00:55:52;;;;;;;27.33;21.63;;;;;;;8.18;77.83;99661.84;5117721;28;20048;-56
2021/04/02 00:58:21;;;;;;;24.17;20.67;;;;;;;8.12;77.73;99656.72;5118298;28;20040;-55
2021/04/02 01:00:46;;;;;;;23.85;20.60;;;;;;;8.10;78.05;99656.75;5117375;28;20092;-55
2021/04/02 01:03:12;;;;;;;22.90;19.48;;;;;;;8.05;78.28;99663.78;5118212;28;20039;-55
2021/04/02 01:05:45;;;;;;;26.40;21.27;;;;;;;7.99;78.46;99661.28;5117521;28;20051;-55
2021/04/02 01:08:14;;;;;;;23.63;19.73;;;;;;;8.07;78.43;99653.34;5117826;28;20101;-55
2021/04/02 01:10:40;;;;;;;23.25;19.65;;;;;;;8.09;78.82;99660.28;5117908;28;20449;-55
2021/04/02 01:13:12;;;;;;;24.35;20.08;;;;;;;8.09;78.20;99649.84;5117122;28;20043;-55
2021/04/02 01:15:42;;;;;;;21.95;19.35;;;;;;;8.02;78.28;99663.00;5100676;28;20146;-54
2021/04/02 01:18:20;;;;;;;23.55;18.92;;;;;;;8.00;78.82;99665.63;5117091;28;20337;-54
2021/04/02 01:20:46;;;;;;;21.90;17.35;;;;;;;7.90;79.22;99664.94;5117795;28;20048;-54
2021/04/02 01:23:13;;;;;;;24.88;19.52;;;;;;;7.85;78.96;99663.28;5099411;28;20040;-55
2021/04/02 01:25:43;;;;;;;20.88;17.92;;;;;;;7.76;79.90;99664.28;5117126;28;20421;-54
2021/04/02 01:28:41;;;;;;;22.85;19.02;;;;;;;7.73;79.83;99667.81;5117126;28;20048;-54
2021/04/02 01:31:08;;;;;;;25.13;20.23;;;;;;;7.83;79.82;99668.53;5117102;28;20062;-54
2021/04/02 01:33:34;;;;;;;24.38;20.15;;;;;;;7.83;79.79;99678.06;5117536;28;20058;-54
2021/04/02 01:36:01;;;;;;;27.00;21.45;;;;;;;7.68;80.52;99668.75;5100124;28;20040;-54
2021/04/02 01:38:32;;;;;;;22.65;19.58;;;;;;;7.84;79.58;99670.25;5117407;28;20399;-55
2021/04/02 01:41:04;;;;;;;23.83;20.40;;;;;;;7.69;80.60;99689.59;5116915;28;20046;-54
2021/04/02 01:43:40;;;;;;;25.15;19.75;;;;;;;7.73;80.92;99693.88;5116817;28;20048;-55
2021/04/02 01:46:07;;;;;;;21.60;19.00;;;;;;;7.70;81.12;99695.66;5117651;28;20043;-55
2021/04/02 01:48:34;;;;;;;26.90;21.52;;;;;;;7.75;81.21;99693.84;5099941;28;20052;-54
2021/04/02 01:50:59;;;;;;;25.83;21.55;;;;;;;7.83;80.88;99705.03;5099779;28;20174;-54
2021/04/02 01:53:27;;;;;;;28.35;22.60;;;;;;;7.88;79.92;99704.94;5116553;28;20105;-54
2021/04/02 01:55:54;;;;;;;26.80;21.80;;;;;;;7.69;80.90;99705.22;5099496;28;20035;-54
2021/04/02 01:58:21;;;;;;;24.55;21.50;;;;;;;7.69;79.72;99706.97;5116421;28;20040;-55
2021/04/02 02:00:50;;;;;;;25.88;22.23;;;;;;;7.58;78.83;99709.75;5117048;28;20043;-54
2021/04/02 02:03:21;;;;;;;26.20;21.92;;;;;;;7.54;79.21;99707.19;5117314;28;20048;-55
2021/04/02 02:05:47;;;;;;;25.25;22.17;;;;;;;7.44;79.36;99716.88;5082496;28;20066;-54
2021/04/02 02:08:24;;;;;;;24.65;21.40;;;;;;;7.43;77.77;99725.59;5116709;28;20058;-55
2021/04/02 02:10:59;;;;;;;23.08;20.58;;;;;;;7.36;77.31;99723.94;5099291;28;20051;-55
2021/04/02 02:13:26;;;;;;;;;;;;;;;7.10;78.25;99732.09;5117063;28;20319;-55
2021/04/02 02:16:04;;;;;;;22.48;19.23;;;;;;;6.97;78.02;99726.16;5116118;28;19919;-55
2021/04/02 02:18:30;;;;;;;23.33;19.35;;;;;;;6.76;78.35;99727.28;5065934;28;20035;-55
2021/04/02 02:20:56;;;;;;;23.30;19.60;;;;;;;7.00;77.47;99734.81;5117007;28;20116;-55
2021/04/02 02:23:24;;;;;;;20.40;17.17;;;;;;;7.07;76.37;99729.53;5099501;28;20047;-55
2021/04/02 02:25:49;;;;;;;24.10;18.63;;;;;;;7.08;76.41;99731.25;5099199;28;20061;-55
2021/04/02 02:28:17;;;;;;;19.40;16.73;;;;;;;6.97;76.75;99747.88;5067279;28;20131;-55
2021/04/02 02:30:44;;;;;;;18.67;15.80;;;;;;;7.01;76.18;99738.28;5116006;28;20051;-55
2021/04/02 02:33:31;;;;;;;16.05;13.45;;;;;;;6.86;75.99;99738.44;5115992;28;20051;-55
2021/04/02 02:36:06;;;;;;;16.85;14.70;;;;;;;6.80;75.95;99739.38;5115716;28;20047;-55
2021/04/02 02:38:33;;;;;;;16.02;14.00;;;;;;;6.73;75.82;99753.34;5116700;28;20049;-55
2021/04/02 02:41:02;;;;;;;16.27;13.52;;;;;;;6.79;75.30;99755.88;5115652;28;20118;-55
2021/04/02 02:43:28;;;;;;;15.40;12.70;;;;;;;6.70;75.61;99764.66;5082185;28;20429;-55
2021/04/02 02:45:55;;;;;;;14.95;13.00;;;;;;;6.65;76.24;99755.16;5098985;28;20104;-55
2021/04/02 02:48:21;;;;;;;13.20;11.05;;;;;;;6.66;75.25;99767.28;5116441;28;20043;-55
2021/04/02 02:50:50;;;;;;;12.35;10.50;;;;;;;6.62;75.31;99770.78;5116384;28;20077;-55
2021/04/02 02:53:17;;;;;;;10.07;8.60;;;;;;;6.58;74.95;99769.13;5082842;28;20054;-55
2021/04/02 02:55:45;;;;;;;10.82;8.95;;;;;;;6.53;74.77;99770.03;5082132;28;20036;-55
2021/04/02 02:58:16;;;;;;;10.88;8.95;;;;;;;6.40;74.71;99776.22;5099585;28;20043;-55
2021/04/02 03:00:43;;;;;;;9.60;8.60;;;;;;;6.44;74.66;99780.50;5115981;28;20040;-55
2021/04/02 03:03:13;;;;;;;11.43;8.95;;;;;;;6.37;74.38;99775.34;5081971;28;20039;-55
2021/04/02 03:05:40;;;;;;;12.43;10.07;;;;;;;6.57;73.49;99781.25;5116016;28;20077;-55
2021/04/02 03:08:06;;;;;;;12.82;9.85;;;;;;;6.41;73.58;99792.69;5115347;28;20047;-55
2021/04/02 03:10:35;;;;;;;10.40;8.80;;;;;;;6.32;73.58;99788.41;5098474;28;20509;-55
2021/04/02 03:13:02;;;;;;;13.07;10.57;;;;;;;6.37;73.61;99801.38;5098483;28;20043;-55
2021/04/02 03:15:28;;;;;;;12.50;10.50;;;;;;;6.21;73.83;99805.84;5116175;28;20032;-55
2021/04/02 03:17:57;;;;;;;13.13;11.18;;;;;;;6.29;73.64;99799.69;5098926;28;20047;-55
2021/04/02 03:20:22;;;;;;;15.07;11.05;;;;;;;6.07;74.34;99806.78;5116364;28;20047;-55
2021/04/02 03:22:49;;;;;;;13.57;11.68;;;;;;;6.25;74.03;99812.75;5098391;28;20051;-55
2021/04/02 03:25:20;;;;;;;12.77;10.77;;;;;;;6.15;74.54;99824.97;5115776;28;20086;-55
2021/04/02 03:27:51;;;;;;;11.90;9.82;;;;;;;6.17;73.79;99825.78;5115805;28;20039;-55
2021/04/02 03:30:26;;;;;;;10.45;8.73;;;;;;;5.98;73.01;99822.47;5115533;28;20047;-55
2021/04/02 03:33:12;;;;;;;10.18;7.07;;;;;;;5.88;72.39;99818.13;5116273;28;20492;-55
2021/04/02 03:35:40;;;;;;;8.38;6.43;;;;;;;5.81;72.68;99826.84;5098626;28;20059;-55
2021/04/02 03:38:09;;;;;;;7.47;6.13;;;;;;;6.00;72.10;99831.09;5115273;28;20051;-55
2021/04/02 03:40:35;;;;;;;6.82;5.70;;;;;;;6.04;71.17;99835.41;5115128;28;20040;-55
2021/04/02 03:43:01;;;;;;;7.60;6.45;;;;;;;5.83;71.25;99830.31;5115065;28;20047;-55
2021/04/02 03:45:28;;;;;;;7.05;5.38;;;;;;;5.82;71.54;99844.19;5116323;28;20051;-55
2021/04/02 03:47:55;;;;;;;7.97;6.50;;;;;;;5.72;71.49;99839.88;5102375;28;20063;-55
2021/04/02 03:50:22;;;;;;;8.73;7.20;;;;;;;5.57;71.96;99841.69;5119866;28;20103;-55
2021/04/02 03:53:09;;;;;;;7.93;6.30;;;;;;;5.86;70.41;99843.31;5119421;28;20047;-55
2021/04/02 03:55:39;;;;;;;7.65;6.80;;;;;;;5.75;70.45;99843.38;5103846;28;20051;-55
2021/04/02 03:58:06;;;;;;;11.18;8.25;;;;;;;5.56;71.40;99841.72;5118450;28;20457;-55
2021/04/02 04:00:52;;;;;;;11.40;8.50;;;;;;;5.49;70.19;99842.59;5101775;28;20039;-55
2021/04/02 04:03:19;;;;;;;10.35;9.25;;;;;;;5.24;70.48;99834.91;5119956;28;20046;-55
2021/04/02 04:05:48;;;;;;;11.20;9.27;;;;;;;5.37;70.28;99840.91;5102193;28;20052;-55
2021/04/02 04:08:16;;;;;;;11.68;9.65;;;;;;;5.43;70.10;99833.09;5118616;28;20124;-55
2021/04/02 04:10:44;;;;;;;10.52;9.40;;;;;;;5.12;70.49;99835.78;5084959;28;20068;-55
2021/04/02 04:13:13;;;;;;;11.55;9.95;;;;;;;5.22;69.88;99817.59;5118570;28;20043;-55
2021/04/02 04:15:40;;;;;;;10.63;9.52;;;;;;;5.22;70.42;99822.78;5101468;28;20068;-55
2021/04/02 04:18:07;;;;;;;12.38;10.48;;;;;;;5.37;69.37;99822.72;5101299;28;20379;-55
2021/04/02 04:20:34;;;;;;;12.45;10.80;;;;;;;5.46;69.23;99816.63;5084872;28;20134;-55
2021/04/02 04:23:20;;;;;;;14.50;10.77;;;;;;;5.24;69.39;99821.06;5104521;28;20047;-55
2021/04/02 04:25:46;;;;;;;13.48;12.02;;;;;;;5.31;68.90;99821.03;5101608;28;20436;-55
2021/04/02 04:28:13;;;;;;;14.18;12.00;;;;;;;5.18;68.98;99818.47;5118818;28;20565;-55
2021/04/02 04:30:39;;;;;;;14.02;12.35;;;;;;;5.14;69.83;99817.63;5101469;28;20058;-55
2021/04/02 04:33:06;;;;;;;16.48;13.05;;;;;;;5.31;69.57;99821.03;5101015;28;20039;-55
2021/04/02 04:35:31;;;;;;;14.70;12.70;;;;;;;5.06;69.91;99815.03;5118125;28;20051;-55
2021/04/02 04:37:57;;;;;;;14.05;12.05;;;;;;;5.15;70.05;99812.41;5101083;28;20067;-55
2021/04/02 04:40:23;;;;;;;14.00;11.80;;;;;;;5.10;70.08;99821.97;5117836;28;20360;-44
2021/04/02 04:42:49;;;;;;;12.18;10.10;;;;;;;5.11;69.43;99831.47;5117983;28;20047;-43
2021/04/02 04:45:22;;;;;;;12.93;9.52;;;;;;;5.11;68.53;99828.00;5118587;28;20046;-43
2021/04/02 04:47:48;;;;;;;11.25;9.65;;;;;;;4.86;69.07;99832.38;5100735;28;20442;-44
2021/04/02 04:50:14;;;;;;;11.10;8.18;;;;;;;4.98;69.48;99850.53;5117581;28;20067;-44
2021/04/02 04:52:55;;;;;;;8.07;7.28;;;;;;;5.08;68.67;99839.25;5118654;28;20047;-44
2021/04/02 04:55:21;;;;;;;8.98;6.97;;;;;;;5.12;68.38;99845.31;5118972;28;20067;-44
2021/04/02 04:57:49;;;;;;;8.35;7.30;;;;;;;5.24;68.04;99837.50;5116628;28;20051;-43
2021/04/02 05:00:15;;;;;;;8.63;6.88;;;;;;;5.18;67.92;99837.50;5100411;28;20047;-44
2021/04/02 05:02:42;;;;;;;10.35;5.50;;;;;;;5.19;68.30;99841.81;5118127;28;20464;-44
2021/04/02 05:05:09;;;;;;;7.20;6.05;;;;;;;5.25;68.54;99846.16;5117266;28;20093;-44
2021/04/02 05:07:35;;;;;;;12.85;7.32;;;;;;;5.25;68.80;99847.00;5100366;28;20065;-44
2021/04/02 05:10:00;;;;;;;9.80;7.65;;;;;;;5.25;68.48;99844.41;5100364;28;20474;-44
2021/04/02 05:12:26;;;;;;;9.85;6.97;;;;;;;5.11;68.98;99853.97;5117148;28;20123;-44
2021/04/02 05:14:52;;;;;;;9.70;6.70;;;;;;;5.07;69.14;99858.31;5117327;28;20047;-44
2021/04/02 05:17:18;;;;;;;11.07;6.93;;;;;;;5.13;68.27;99873.00;5117573;28;20114;-44
2021/04/02 05:19:44;;;;;;;5.80;4.95;;;;;;;5.20;67.70;99869.53;5100228;28;20051;-44
2021/04/02 05:22:10;;;;;;;6.97;6.28;;;;;;;5.21;67.28;99873.00;5117204;28;20047;-44
2021/04/02 05:24:37;;;;;;;6.60;5.60;;;;;;;5.24;67.19;99876.44;5116923;28;20406;-44
2021/04/02 05:27:04;;;;;;;6.20;5.53;;;;;;;4.96;67.63;99883.41;5117998;28;20035;-44
2021/04/02 05:29:30;;;;;;;6.25;5.05;;;;;;;5.08;67.58;99890.34;5116801;28;20103;-44
2021/04/02 05:31:56;;;;;;;6.35;5.15;;;;;;;5.18;67.44;99888.59;5117314;28;20097;-43
2021/04/02 05:34:22;;;;;;;6.05;4.82;;;;;;;5.30;67.70;99889.44;5116633;28;20055;-44
2021/04/02 05:36:48;;;;;;;5.75;5.03;;;;;;;5.39;67.21;99892.00;5117427;28;20112;-44
2021/04/02 05:39:13;;;;;;;5.90;4.78;;;;;;;5.42;67.12;99890.25;5116570;28;20089;-44
2021/04/02 05:41:53;;;;;;;6.22;5.38;;;;;;;5.41;66.34;99891.13;5116807;28;20470;-44
2021/04/02 05:44:26;;;;;;;7.43;5.60;;;;;;;5.45;66.61;99885.91;5116500;28;20065;-43
2021/04/02 05:46:51;;;;;;;8.52;5.47;;;;;;;5.59;65.92;99891.94;5118172;28;20058;-44
2021/04/02 05:49:19;;;;;;;7.15;5.13;;;;;;;5.54;66.40;99896.28;5099693;28;20048;-43
2021/04/02 05:51:45;;;;;;;6.28;5.20;;;;;;;5.60;66.66;99895.41;5116377;28;20046;-43
2021/04/02 05:54:11;;;;;;;6.75;5.22;;;;;;;5.59;66.42;99896.28;5116568;28;20043;-43
2021/04/02 05:56:37;;;;;;;5.38;4.55;;;;;;;5.34;65.15;99904.13;5116323;28;20477;-43
2021/04/02 05:59:03;;;;;;;4.45;3.95;;;;;;;5.24;65.31;99901.56;5117299;28;20096;-44
2021/04/02 06:01:28;;;;;;;9.52;6.53;;;;;;;5.40;65.04;99908.44;5117331;28;20058;-44
2021/04/02 06:03:54;;;;;;;7.13;5.90;;;;;;;5.22;65.58;99903.28;5116440;28;20048;-43
2021/04/02 06:06:20;;;;;;;13.95;7.35;;;;;;;5.26;65.98;99902.41;5116360;28;20127;-44
2021/04/02 06:08:46;;;;;;;5.53;4.38;;;;;;;5.36;65.38;99909.31;5115687;28;20399;-44
2021/04/02 06:11:12;;;;;;;8.07;5.70;;;;;;;5.44;65.59;99917.97;5116660;28;20043;-44
2021/04/02 06:13:38;;;;;;;6.22;5.63;;;;;;;5.33;65.65;99922.28;5116887;28;20457;-44
2021/04/02 06:16:04;;;;;;;14.65;8.68;;;;;;;5.14;66.03;99911.97;5117074;28;20051;-44
2021/04/02 06:18:30;;;;;;;6.68;5.40;;;;;;;5.42;65.63;99917.09;5116666;28;20357;-44
2021/04/02 06:20:56;;;;;;;8.98;6.15;;;;;;;5.58;65.34;99910.13;5116429;28;20131;-44
2021/04/02 06:23:23;;;;;;;9.85;5.75;;;;;;;5.67;64.82;99915.28;5116142;28;20040;-44
2021/04/02 06:25:56;;;;;;;7.13;5.60;;;;;;;5.88;63.67;99923.88;5116126;28;20036;-44
2021/04/02 06:28:25;;;;;;;7.15;6.07;;;;;;;5.84;62.97;99931.66;5116947;28;20088;-44
2021/04/02 06:31:07;;;;;;;9.20;6.43;;;;;;;5.71;63.41;99934.31;5116628;28;20050;-44
2021/04/02 06:33:40;;;;;;;12.18;8.05;;;;;;;5.71;62.97;99940.38;5116844;28;20134;-44
2021/04/02 06:36:23;;;;;;;7.28;6.45;;;;;;;5.78;62.97;99933.44;5115729;28;20061;-44
2021/04/02 06:38:56;;;;;;;10.75;9.60;;;;;;;5.90;63.34;99927.34;5116195;28;20051;-44
2021/04/02 06:41:23;;;;;;;8.98;8.07;;;;;;;6.01;63.77;99934.25;5116818;28;20047;-44
2021/04/02 06:43:54;;;;;;;7.53;6.72;;;;;;;6.17;62.94;99931.56;5116402;28;20460;-44
2021/04/02 06:46:31;;;;;;;16.42;13.52;;;;;;;6.12;62.05;99936.81;5115631;28;20040;-44
2021/04/02 06:49:09;;;;;;;10.60;9.07;;;;;;;6.04;62.48;99930.75;5116360;28;20040;-44
2021/04/02 06:51:36;;;;;;;10.95;7.88;;;;;;;6.17;62.11;99929.81;5098654;28;20043;-44
2021/04/02 06:54:02;;;;;;;10.77;8.10;;;;;;;6.39;61.77;99940.13;5116382;28;20326;-44
2021/04/02 06:56:28;;;;;;;8.52;7.32;;;;;;;6.08;61.88;99933.34;5116278;28;20056;-44
2021/04/02 06:58:53;;;;;;;8.50;7.40;;;;;;;6.33;61.02;99930.59;5115649;28;20054;-44
2021/04/02 07:01:19;;;;;;;10.65;9.05;;;;;;;6.64;61.51;99938.22;5115349;28;20112;-45
2021/04/02 07:03:45;;;;;;;44.42;22.15;;;;;;;6.67;60.69;99940.81;5116213;28;20112;-44
2021/04/02 07:06:11;;;;;;;22.95;13.73;;;;;;;6.87;60.15;99938.06;5116265;28;20349;-44
2021/04/02 07:08:41;;;;;;;31.92;17.83;;;;;;;6.96;58.90;99932.78;5116043;28;20055;-44
2021/04/02 07:11:07;;;;;;;17.48;13.45;;;;;;;6.91;58.45;99932.81;5115357;28;20117;-44
2021/04/02 07:13:38;;;;;;;25.08;15.02;;;;;;;6.91;58.79;99934.53;5098501;28;20426;-44
2021/04/02 07:16:05;;;;;;;11.55;10.35;;;;;;;7.16;58.17;99935.22;5116079;28;20047;-44
2021/04/02 07:18:30;;;;;;;31.75;18.88;;;;;;;7.38;58.71;99931.53;5116012;28;20335;-43
2021/04/02 07:20:56;;;;;;;12.85;10.38;;;;;;;7.38;58.14;99934.13;5117661;28;20058;-44
2021/04/02 07:23:22;;;;;;;14.07;10.10;;;;;;;7.24;59.25;99941.19;5120138;28;20110;-44
2021/04/02 07:25:48;;;;;;;14.65;10.30;;;;;;;7.52;57.33;99943.53;5120347;28;20047;-44
2021/04/02 07:28:14;;;;;;;15.68;9.93;;;;;;;7.44;57.02;99944.50;5119065;28;20051;-44
2021/04/02 07:30:40;;;;;;;11.73;9.15;;;;;;;7.58;57.61;99940.88;5119678;28;20046;-44
2021/04/02 07:33:09;;;;;;;11.00;8.75;;;;;;;7.01;57.66;99951.81;5120221;28;20448;-44
2021/04/02 07:35:38;;;;;;;10.25;8.93;;;;;;;7.23;58.51;99947.28;5119300;28;20104;-44
2021/04/02 07:38:07;;;;;;;9.82;8.82;;;;;;;7.44;57.91;99946.22;5119740;28;20082;-44
2021/04/02 07:40:34;;;;;;;19.50;12.63;;;;;;;7.46;58.13;99947.06;5102239;28;20051;-44
2021/04/02 07:43:08;;;;;;;23.77;13.13;;;;;;;7.58;57.28;99952.16;5120004;28;20112;-44
2021/04/02 07:45:35;;;;;;;12.00;9.98;;;;;;;7.53;57.45;99951.34;5120030;28;20400;-44
2021/04/02 07:48:22;;;;;;;22.98;12.27;;;;;;;7.45;57.19;99955.78;5119719;28;20039;-44
2021/04/02 07:50:51;;;;;;;12.63;9.48;;;;;;;7.41;56.85;99959.28;5102064;28;20052;-44
2021/04/02 07:53:39;;;;;;;12.68;8.80;;;;;;;7.73;57.48;99957.22;5119518;28;20051;-44
2021/04/02 07:56:09;;;;;;;11.73;8.25;;;;;;;7.89;56.45;99954.41;5119832;28;20422;-44
2021/04/02 07:58:39;;;;;;;9.27;8.23;;;;;;;8.15;54.94;99965.38;5119454;28;20423;-44
2021/04/02 08:01:05;;;;;;;11.07;8.35;;;;;;;8.05;54.55;99960.31;5118525;28;20073;-44
2021/04/02 08:03:31;;;;;;;12.05;8.65;;;;;;;8.44;54.38;99961.56;5118726;28;20047;-44
2021/04/02 08:06:21;;;;;;;8.25;7.38;;;;;;;9.12;53.43;99958.78;5119259;28;20078;-44
2021/04/02 08:08:47;;;;;;;11.57;9.50;;;;;;;9.19;52.32;99957.78;5113471;28;20040;-44
2021/04/02 08:11:18;;;;;;;9.18;7.93;;;;;;;9.68;51.22;99950.81;5119519;28;20380;-44
2021/04/02 08:13:47;;;;;;;9.75;8.48;;;;;;;10.09;51.20;99957.00;5119115;28;20044;-44
2021/04/02 08:16:27;;;;;;;11.73;7.85;;;;;;;9.55;49.70;99955.41;5119438;28;20035;-45
2021/04/02 08:19:09;;;;;;;8.35;7.45;;;;;;;10.20;50.01;99955.00;5119295;28;20047;-44
2021/04/02 08:21:35;;;;;;;8.95;8.15;;;;;;;10.51;50.18;99957.88;5118942;28;20055;-45
2021/04/02 08:24:03;;;;;;;8.55;7.72;;;;;;;10.99;49.96;99963.72;5119214;28;20051;-45
2021/04/02 08:26:31;;;;;;;9.60;7.90;;;;;;;11.32;47.83;99958.53;5119339;28;20039;-45
2021/04/02 08:29:01;;;;;;;8.88;7.97;;;;;;;11.03;47.10;99958.41;5119127;28;20069;-45
2021/04/02 08:31:26;;;;;;;9.90;8.43;;;;;;;11.40;47.70;99967.03;5118721;28;20036;-45
2021/04/02 08:33:55;;;;;;;9.95;8.70;;;;;;;11.54;47.38;99958.84;5119051;28;20063;-45
2021/04/02 08:36:25;;;;;;;9.60;8.60;;;;;;;11.72;47.06;99956.59;5117873;28;20082;-45
2021/04/02 08:38:51;;;;;;;13.50;7.75;;;;;;;11.94;47.02;99947.28;5118008;28;20043;-45
2021/04/02 08:41:20;;;;;;;8.98;7.82;;;;;;;11.78;46.21;99951.19;5118896;28;20069;-45
2021/04/02 08:43:46;;;;;;;9.48;8.55;;;;;;;12.03;46.00;99949.63;5118048;28;20074;-45
2021/04/02 08:46:13;;;;;;;7.70;6.93;;;;;;;12.07;46.54;99947.78;5117653;28;20438;-45
2021/04/02 08:48:39;;;;;;;8.48;7.65;;;;;;;12.25;46.18;99938.50;5084377;28;20056;-45
2021/04/02 08:51:04;;;;;;;8.38;7.57;;;;;;;11.96;46.20;99936.72;5119284;28;20391;-45
2021/04/02 08:53:40;;;;;;;8.70;7.90;;;;;;;11.88;46.05;99939.56;5117689;28;20365;-45
2021/04/02 08:56:06;;;;;;;9.23;8.32;;;;;;;11.70;45.23;99928.66;5117704;28;20059;-45
2021/04/02 08:58:33;;;;;;;9.77;7.50;;;;;;;11.44;45.67;99932.00;5118408;28;20039;-45
2021/04/02 09:00:59;;;;;;;7.55;6.85;;;;;;;11.88;46.40;99932.53;5118298;28;20097;-45
2021/04/02 09:03:24;;;;;;;7.43;6.72;;;;;;;12.15;46.95;99925.66;5118242;28;20044;-46
2021/04/02 09:05:50;;;;;;;7.30;6.60;;;;;;;12.48;45.44;99924.66;5118424;28;20048;-46
2021/04/02 09:08:19;;;;;;;7.60;6.70;;;;;;;12.57;44.50;99924.38;5117173;28;20078;-46
2021/04/02 09:10:45;;;;;;;12.18;7.88;;;;;;;12.26;45.02;99932.34;5118007;28;20055;-46
2021/04/02 09:13:11;;;;;;;7.55;6.78;;;;;;;12.21;44.50;99923.75;5112255;28;20058;-45
2021/04/02 09:15:37;;;;;;;10.07;8.05;;;;;;;12.32;44.51;99921.66;5104796;28;20442;-45
2021/04/02 09:18:19;;;;;;;15.05;8.48;;;;;;;11.48;45.35;99913.56;5108987;28;20052;-45
2021/04/02 09:20:45;;;;;;;8.57;7.70;;;;;;;11.79;45.35;99913.53;5097705;28;20079;-45
2021/04/02 09:23:11;;;;;;;8.07;7.28;;;;;;;12.14;45.03;99912.56;5115367;28;20051;-45
2021/04/02 09:25:38;;;;;;;8.95;7.65;;;;;;;11.83;44.45;99909.91;5117584;28;20040;-45
2021/04/02 09:28:07;;;;;;;7.15;6.45;;;;;;;11.86;44.20;99902.00;5116373;28;20089;-45
2021/04/02 09:30:33;;;;;;;7.93;6.45;;;;;;;11.95;44.05;99904.34;5115802;28;20035;-45
2021/04/02 09:32:59;;;;;;;8.48;6.68;;;;;;;12.14;44.42;99907.31;5115414;28;20486;-45
2021/04/02 09:35:24;;;;;;;7.60;6.90;;;;;;;12.53;43.66;99904.38;5115796;28;20381;-45
2021/04/02 09:37:50;;;;;;;8.50;7.70;;;;;;;12.45;42.39;99896.75;5115505;28;20613;-45
2021/04/02 09:40:17;;;;;;;8.43;7.63;;;;;;;12.59;43.46;99896.28;5115514;28;20043;-45
2021/04/02 09:42:46;;;;;;;7.78;7.07;;;;;;;11.92;42.70;99896.56;5116434;28;20430;-45
2021/04/02 09:45:12;;;;;;;7.47;6.80;;;;;;;12.07;42.28;99895.28;5100076;28;20031;-45
2021/04/02 09:47:46;;;;;;;19.48;11.63;;;;;;;12.59;42.78;99884.00;5117266;28;20055;-45
2021/04/02 09:50:12;;;;;;;6.93;6.22;;;;;;;12.54;41.13;99885.91;5117512;28;20040;-45
2021/04/02 09:52:38;;;;;;;7.68;6.88;;;;;;;12.70;42.50;99888.91;5117197;28;20051;-45
2021/04/02 09:55:05;;;;;;;6.30;5.70;;;;;;;12.77;41.05;99887.84;5117470;28;20047;-45
2021/04/02 09:57:31;;;;;;;7.00;5.90;;;;;;;13.02;41.42;99879.97;5117108;28;20512;-46
2021/04/02 09:59:57;;;;;;;9.20;6.10;;;;;;;13.24;40.55;99882.75;5117299;28;20048;-46
2021/04/02 10:02:22;;;;;;;6.65;5.88;;;;;;;13.06;40.27;99886.88;5116980;28;20047;-46
2021/04/02 10:04:48;;;;;;;7.03;6.32;;;;;;;13.00;40.11;99880.91;5116218;28;20035;-45
2021/04/02 10:07:14;;;;;;;8.23;7.43;;;;;;;13.00;40.26;99876.56;5116971;28;20086;-46
2021/04/02 10:09:39;;;;;;;7.80;7.00;;;;;;;13.39;39.53;99870.84;5116743;28;20048;-46
2021/04/02 10:12:06;;;;;;;6.95;5.88;;;;;;;13.47;37.81;99873.19;5116955;27;20050;-46
2021/04/02 10:14:32;;;;;;;6.93;5.50;;;;;;;13.38;37.47;99869.09;5117142;28;20326;-46
2021/04/02 10:16:58;;;;;;;8.35;6.05;;;;;;;13.28;36.50;99862.47;5117371;28;20054;-46
2021/04/02 10:19:24;;;;;;;11.25;5.93;;;;;;;13.40;38.18;99861.19;5116090;28;20044;-46
2021/04/02 10:21:50;;;;;;;7.00;6.20;;;;;;;12.99;38.23;99864.28;5116998;28;20062;-46
2021/04/02 10:24:15;;;;;;;7.05;6.13;;;;;;;13.51;38.82;99865.13;5116734;28;20436;-46
2021/04/02 10:26:43;;;;;;;6.70;6.07;;;;;;;13.79;38.85;99866.75;5115857;28;20043;-46
2021/04/02 10:29:08;;;;;;;9.65;8.25;;;;;;;13.54;39.54;99858.91;5116572;28;20043;-46
2021/04/02 10:31:35;;;;;;;7.97;7.28;;;;;;;13.66;39.46;99853.19;5116875;28;20054;-46
2021/04/02 10:34:00;;;;;;;11.55;9.27;;;;;;;13.88;39.60;99857.66;5116860;28;20058;-46
2021/04/02 10:36:26;;;;;;;10.25;8.18;;;;;;;14.10;39.72;99857.69;5115625;28;20353;-46
2021/04/02 10:38:52;;;;;;;14.90;10.95;;;;;;;14.33;38.75;99855.03;5116715;28;20043;-46
2021/04/02 10:41:18;;;;;;;9.10;8.13;;;;;;;14.30;39.57;99852.50;5116785;28;20495;-46
2021/04/02 10:43:44;;;;;;;8.15;7.40;;;;;;;13.93;37.66;99848.66;5116717;28;20479;-46
2021/04/02 10:46:11;;;;;;;7.95;7.15;;;;;;;14.16;38.46;99847.78;5117020;28;20043;-46
2021/04/02 10:48:37;;;;;;;8.48;6.97;;;;;;;14.38;38.63;99841.66;5116719;28;20047;-46
2021/04/02 10:51:03;;;;;;;6.90;6.30;;;;;;;14.42;36.71;99845.88;5116234;28;20070;-46
2021/04/02 10:53:29;;;;;;;8.15;7.35;;;;;;;14.40;37.51;99834.56;5116398;28;20051;-46
2021/04/02 10:55:59;;;;;;;8.02;6.82;;;;;;;14.48;37.08;99827.19;5117935;28;20327;-46
2021/04/02 10:58:25;;;;;;;6.63;6.03;;;;;;;14.78;37.94;99825.09;5121182;28;20039;-46
2021/04/02 11:00:51;;;;;;;8.25;7.45;;;;;;;14.95;36.45;99833.16;5121001;28;20449;-46
2021/04/02 11:03:17;;;;;;;5.93;5.43;;;;;;;14.69;34.54;99829.00;5103010;28;20047;-46
2021/04/02 11:05:43;;;;;;;5.70;5.20;;;;;;;14.84;34.42;99823.97;5120720;28;20051;-46
2021/04/02 11:08:08;;;;;;;7.68;5.53;;;;;;;14.51;35.79;99820.97;5112823;28;20054;-46
2021/04/02 11:10:34;;;;;;;4.90;4.40;;;;;;;14.41;34.71;99815.19;5113445;28;20108;-46
2021/04/02 11:13:00;;;;;;;6.28;5.68;;;;;;;14.62;35.47;99809.06;5120635;28;20062;-46
2021/04/02 11:15:26;;;;;;;6.03;5.43;;;;;;;14.79;35.19;99805.72;5116283;28;20053;-46
2021/04/02 11:17:52;;;;;;;6.50;5.90;;;;;;;15.04;34.45;99812.56;5099878;28;20042;-46
2021/04/02 11:20:20;;;;;;;6.80;4.80;;;;;;;14.83;32.96;99806.47;5099606;28;20117;-46
2021/04/02 11:22:46;;;;;;;6.18;5.57;;;;;;;14.18;32.96;99803.81;5099959;28;20048;-46
2021/04/02 11:25:12;;;;;;;5.80;4.70;;;;;;;14.32;34.27;99800.59;5099635;28;20044;-46
2021/04/02 11:27:38;;;;;;;5.93;5.40;;;;;;;14.42;35.13;99793.19;5098802;28;20078;-46
2021/04/02 11:30:07;;;;;;;7.15;6.45;;;;;;;14.79;35.00;99795.19;5097839;28;20350;-46
2021/04/02 11:32:33;;;;;;;6.32;5.70;;;;;;;14.89;35.24;99796.50;5096977;28;20059;-46
2021/04/02 11:34:59;;;;;;;11.27;6.28;;;;;;;14.91;35.37;99789.38;5097652;28;20430;-46
2021/04/02 11:37:25;;;;;;;6.72;5.35;;;;;;;14.91;35.32;99783.25;5080159;28;20451;-46